createdAt,value
2018-09-05T00:02:08.153Z,101805.01
2018-09-05T00:04:36.569Z,101806.72
2018-09-05T00:07:04.972Z,101809.78
2018-09-05T00:09:33.385Z,101814.11
2018-09-05T00:12:01.797Z,101807.11
2018-09-05T00:14:30.238Z,101801.86
2018-09-05T00:16:58.638Z,101803.55
2018-09-05T00:19:27.082Z,101805.27
2018-09-05T00:21:55.705Z,101802.21
2018-09-05T00:24:24.139Z,101803.08
2018-09-05T00:26:52.543Z,101807.01
2018-09-05T00:29:20.978Z,101803.11
2018-09-05T00:31:49.377Z,101804.02
2018-09-05T00:34:17.793Z,101799.64
2018-09-05T00:36:46.194Z,101808.39
2018-09-05T00:39:14.630Z,101804.03
2018-09-05T00:41:43.025Z,101805.34
2018-09-05T00:44:11.445Z,101806.66
2018-09-05T00:46:39.839Z,101807.09
2018-09-05T00:49:08.266Z,101803.59
2018-09-05T00:51:36.686Z,101802.27
2018-09-05T00:54:05.311Z,101806.65
2018-09-05T00:56:33.732Z,101802.32
2018-09-05T00:59:02.154Z,101805.37
2018-09-05T01:01:30.553Z,101806.67
2018-09-05T01:03:59.000Z,101807.55
2018-09-05T01:06:27.405Z,101806.67
2018-09-05T01:08:55.843Z,101807.11
2018-09-05T01:11:24.246Z,101807.96
2018-09-05T01:13:52.673Z,101811.86
2018-09-05T01:16:21.073Z,101809.22
2018-09-05T01:18:49.515Z,101805.27
2018-09-05T01:21:17.940Z,101800.88
2018-09-05T01:23:46.379Z,101806.92
2018-09-05T01:26:14.781Z,101804.69
2018-09-05T01:28:43.224Z,101808.14
2018-09-05T01:31:11.625Z,101813.35
2018-09-05T01:33:40.054Z,101813.78
2018-09-05T01:36:13.814Z,101818.55
2018-09-05T01:38:42.970Z,101819.40
2018-09-05T01:41:12.043Z,101822.85
2018-09-05T01:43:41.358Z,101819.74
2018-09-05T01:46:09.773Z,101821.42
2018-09-05T01:48:38.738Z,101825.31
2018-09-05T01:51:07.151Z,101824.82
2018-09-05T01:53:35.827Z,101820.00
2018-09-05T01:56:04.244Z,101829.11
2018-09-05T01:58:32.708Z,101830.42
2018-09-05T02:01:01.164Z,101830.36
2018-09-05T02:03:29.646Z,101826.84
2018-09-05T02:05:58.078Z,101821.98
2018-09-05T02:08:26.495Z,101828.92
2018-09-05T02:10:54.931Z,101824.56
2018-09-05T02:13:23.328Z,101822.78
2018-09-05T02:15:51.739Z,101825.87
2018-09-05T02:18:20.163Z,101824.56
2018-09-05T02:20:48.598Z,101827.17
2018-09-05T02:23:16.975Z,101829.78
2018-09-05T02:25:45.395Z,101828.48
2018-09-05T02:28:13.777Z,101826.73
2018-09-05T02:30:42.182Z,101827.20
2018-09-05T02:33:10.569Z,101826.77
2018-09-05T02:35:38.978Z,101828.08
2018-09-05T02:38:07.367Z,101831.13
2018-09-05T02:40:35.829Z,101828.95
2018-09-05T02:43:04.205Z,101833.74
2018-09-05T02:45:32.647Z,101833.27
2018-09-05T02:48:01.043Z,101831.13
2018-09-05T02:50:29.480Z,101830.25
2018-09-05T02:52:57.891Z,101834.17
2018-09-05T02:55:31.739Z,101829.42
2018-09-05T02:58:09.683Z,101825.50
2018-09-05T03:00:38.096Z,101826.84
2018-09-05T03:03:06.765Z,101826.84
2018-09-05T03:05:35.169Z,101821.58
2018-09-05T03:08:03.558Z,101820.27
2018-09-05T03:10:31.976Z,101818.90
2018-09-05T03:13:00.367Z,101822.38
2018-09-05T03:15:28.782Z,101821.48
2018-09-05T03:17:57.163Z,101819.70
2018-09-05T03:20:25.587Z,101825.77
2018-09-05T03:22:53.969Z,101825.77
2018-09-05T03:25:22.405Z,101827.07
2018-09-05T03:27:50.773Z,101826.64
2018-09-05T03:30:19.179Z,101828.38
2018-09-05T03:32:47.633Z,101826.64
2018-09-05T03:35:16.226Z,101827.55
2018-09-05T03:37:44.601Z,101821.38
2018-09-05T03:40:12.999Z,101827.00
2018-09-05T03:42:41.378Z,101824.79
2018-09-05T03:45:09.814Z,101831.33
2018-09-05T03:47:38.213Z,101827.80
2018-09-05T03:50:07.484Z,101832.16
2018-09-05T03:52:35.983Z,101837.35
2018-09-05T03:55:04.385Z,101834.30
2018-09-05T03:57:32.775Z,101839.53
2018-09-05T04:00:01.227Z,101840.83
2018-09-05T04:02:29.623Z,101837.34
2018-09-05T04:04:59.034Z,101844.75
2018-09-05T04:07:27.935Z,101839.96
2018-09-05T04:09:56.329Z,101845.66
2018-09-05T04:12:24.729Z,101843.45
2018-09-05T04:14:53.251Z,101849.58
2018-09-05T04:17:21.846Z,101847.36
2018-09-05T04:19:50.255Z,101852.19
2018-09-05T04:22:18.672Z,101853.50
2018-09-05T04:24:47.080Z,101850.88
2018-09-05T04:27:15.670Z,101856.51
2018-09-05T04:29:44.077Z,101856.47
2018-09-05T04:32:12.551Z,101852.91
2018-09-05T04:34:40.953Z,101855.48
2018-09-05T04:37:09.371Z,101859.80
2018-09-05T04:39:37.749Z,101858.06
2018-09-05T04:42:06.154Z,101861.11
2018-09-05T04:44:34.534Z,101862.38
2018-09-05T04:47:02.940Z,101857.59
2018-09-05T04:49:31.327Z,101865.42
2018-09-05T04:51:59.726Z,101871.56
2018-09-05T04:54:28.132Z,101869.38
2018-09-05T04:56:56.544Z,101870.25
2018-09-05T04:59:24.926Z,101879.88
2018-09-05T05:01:53.330Z,101879.91
2018-09-05T05:04:21.723Z,101881.73
2018-09-05T05:06:50.214Z,101885.29
2018-09-05T05:09:18.623Z,101881.88
2018-09-05T05:11:47.040Z,101881.95
2018-09-05T05:14:15.423Z,101879.84
2018-09-05T05:16:43.852Z,101883.88
2018-09-05T05:19:12.271Z,101881.77
2018-09-05T05:21:40.688Z,101879.66
2018-09-05T05:24:09.073Z,101883.20
2018-09-05T05:26:37.484Z,101885.92
2018-09-05T05:29:05.871Z,101881.59
2018-09-05T05:31:34.287Z,101880.83
2018-09-05T05:34:02.672Z,101877.37
2018-09-05T05:36:31.087Z,101886.15
2018-09-05T05:38:59.476Z,101888.83
2018-09-05T05:41:28.023Z,101887.11
2018-09-05T05:43:56.420Z,101894.63
2018-09-05T05:46:24.866Z,101897.73
2018-09-05T05:48:53.243Z,101901.75
2018-09-05T05:51:22.951Z,101903.98
2018-09-05T05:53:51.337Z,101905.34
2018-09-05T05:56:19.740Z,101905.44
2018-09-05T05:58:48.149Z,101905.08
2018-09-05T06:01:16.678Z,101898.69
2018-09-05T06:03:45.060Z,101911.44
2018-09-05T06:06:13.534Z,101902.40
2018-09-05T06:08:41.909Z,101904.63
2018-09-05T06:11:10.290Z,101905.56
2018-09-05T06:13:38.698Z,101905.14
2018-09-05T06:16:07.089Z,101900.39
2018-09-05T06:18:35.615Z,101900.87
2018-09-05T06:21:04.085Z,101896.98
2018-09-05T06:23:32.462Z,101903.57
2018-09-05T06:26:00.843Z,101901.88
2018-09-05T06:28:29.251Z,101901.45
2018-09-05T06:30:57.758Z,101904.98
2018-09-05T06:33:26.099Z,101909.36
2018-09-05T06:35:54.491Z,101905.94
2018-09-05T06:38:22.908Z,101908.16
2018-09-05T06:40:51.278Z,101909.50
2018-09-05T06:43:19.679Z,101910.86
2018-09-05T06:45:48.057Z,101913.97
2018-09-05T06:48:16.459Z,101910.09
2018-09-05T06:50:44.874Z,101908.36
2018-09-05T06:53:13.271Z,101919.34
2018-09-05T06:55:41.655Z,101916.33
2018-09-05T06:58:10.160Z,101910.20
2018-09-05T07:00:38.526Z,101913.33
2018-09-05T07:03:07.119Z,101916.01
2018-09-05T07:05:35.516Z,101917.38
2018-09-05T07:08:03.921Z,101918.27
2018-09-05T07:10:32.299Z,101921.37
2018-09-05T07:13:00.737Z,101919.62
2018-09-05T07:15:29.123Z,101921.38
2018-09-05T07:17:58.152Z,101919.67
2018-09-05T07:20:26.572Z,101914.84
2018-09-05T07:22:54.983Z,101914.42
2018-09-05T07:25:23.367Z,101913.52
2018-09-05T07:27:52.400Z,101919.19
2018-09-05T07:30:20.801Z,101919.12
2018-09-05T07:32:49.222Z,101917.74
2018-09-05T07:35:17.607Z,101916.78
2018-09-05T07:37:46.027Z,101918.44
2018-09-05T07:40:14.401Z,101915.70
2018-09-05T07:42:42.817Z,101914.30
2018-09-05T07:45:11.211Z,101915.56
2018-09-05T07:47:39.616Z,101915.06
2018-09-05T07:50:08.295Z,101912.88
2018-09-05T07:52:36.703Z,101910.23
2018-09-05T07:55:05.091Z,101913.33
2018-09-05T07:57:33.495Z,101911.55
2018-09-05T08:00:02.042Z,101914.67
2018-09-05T08:02:30.467Z,101925.24
2018-09-05T08:04:58.851Z,101921.31
2018-09-05T08:07:27.223Z,101917.84
2018-09-05T08:09:55.652Z,101920.92
2018-09-05T08:12:24.095Z,101914.78
2018-09-05T08:14:52.493Z,101915.18
2018-09-05T08:17:20.915Z,101907.63
2018-09-05T08:19:49.333Z,101910.20
2018-09-05T08:22:17.697Z,101899.97
2018-09-05T08:24:46.347Z,101909.92
2018-09-05T08:27:14.727Z,101910.22
2018-09-05T08:29:43.127Z,101908.28
2018-09-05T08:32:11.499Z,101911.19
2018-09-05T08:34:40.065Z,101913.23
2018-09-05T08:37:08.550Z,101913.08
2018-09-05T08:39:36.802Z,101913.75
2018-09-05T08:42:05.254Z,101910.98
2018-09-05T08:44:33.714Z,101913.92
2018-09-05T08:47:02.247Z,101904.52
2018-09-05T08:49:30.631Z,101903.55
2018-09-05T08:51:58.995Z,101903.91
2018-09-05T08:54:27.385Z,101907.02
2018-09-05T08:56:55.764Z,101901.39
2018-09-05T08:59:24.228Z,101908.88
2018-09-05T09:01:52.593Z,101898.30
2018-09-05T09:04:20.995Z,101897.55
2018-09-05T09:06:49.371Z,101897.95
2018-09-05T09:09:17.786Z,101898.30
2018-09-05T09:11:46.202Z,101899.53
2018-09-05T09:14:14.570Z,101902.45
2018-09-05T09:16:42.982Z,101899.73
2018-09-05T09:19:11.419Z,101903.11
2018-09-05T09:21:39.837Z,101890.58
2018-09-05T09:24:08.882Z,101899.20
2018-09-05T09:26:37.263Z,101898.53
2018-09-05T09:29:05.776Z,101894.91
2018-09-05T09:31:34.179Z,101888.73
2018-09-05T09:34:02.591Z,101890.06
2018-09-05T09:36:30.974Z,101895.38
2018-09-05T09:38:59.371Z,101891.92
2018-09-05T09:41:27.755Z,101894.72
2018-09-05T09:43:56.154Z,101892.22
2018-09-05T09:46:24.589Z,101896.37
2018-09-05T09:48:52.975Z,101896.09
2018-09-05T09:51:22.982Z,101891.36
2018-09-05T09:53:52.193Z,101892.34
2018-09-05T09:56:20.650Z,101894.17
2018-09-05T09:58:49.029Z,101884.47
2018-09-05T10:01:22.718Z,101891.13
2018-09-05T10:03:56.452Z,101890.63
2018-09-05T10:06:30.200Z,101889.70
2018-09-05T10:10:04.305Z,101882.17
2018-09-05T10:12:37.741Z,101884.28
2018-09-05T10:15:13.658Z,101876.27
2018-09-05T10:17:42.099Z,101879.72
2018-09-05T10:20:10.518Z,101877.00
2018-09-05T10:22:38.912Z,101877.39
2018-09-05T10:25:07.319Z,101879.12
2018-09-05T10:27:35.695Z,101879.17
2018-09-05T10:30:04.095Z,101882.24
2018-09-05T10:32:32.472Z,101873.89
2018-09-05T10:35:00.864Z,101871.66
2018-09-05T10:37:29.251Z,101876.08
2018-09-05T10:39:57.651Z,101872.56
2018-09-05T10:42:26.036Z,101874.30
2018-09-05T10:44:54.462Z,101873.42
2018-09-05T10:47:22.833Z,101868.98
2018-09-05T10:49:51.251Z,101870.59
2018-09-05T10:52:19.627Z,101864.60
2018-09-05T10:54:48.020Z,101859.03
2018-09-05T10:57:16.462Z,101856.48
2018-09-05T10:59:44.831Z,101856.94
2018-09-05T11:02:13.226Z,101856.89
2018-09-05T11:04:41.594Z,101850.70
2018-09-05T11:07:09.974Z,101853.45
2018-09-05T11:09:38.461Z,101852.27
2018-09-05T11:12:06.848Z,101851.63
2018-09-05T11:14:35.218Z,101845.78
2018-09-05T11:17:03.686Z,101850.89
2018-09-05T11:19:32.084Z,101847.13
2018-09-05T11:22:00.485Z,101845.63
2018-09-05T11:24:28.870Z,101841.89
2018-09-05T11:26:57.265Z,101839.15
2018-09-05T11:29:25.637Z,101839.61
2018-09-05T11:31:54.033Z,101848.06
2018-09-05T11:34:22.419Z,101843.80
2018-09-05T11:36:50.853Z,101844.85
2018-09-05T11:39:19.242Z,101841.04
2018-09-05T11:41:47.633Z,101842.56
2018-09-05T11:44:16.008Z,101841.83
2018-09-05T11:46:44.404Z,101839.31
2018-09-05T11:49:12.799Z,101841.20
2018-09-05T11:51:41.189Z,101839.50
2018-09-05T11:54:10.230Z,101838.61
2018-09-05T11:56:38.835Z,101842.12
2018-09-05T11:59:07.499Z,101839.07
2018-09-05T12:01:35.963Z,101835.12
2018-09-05T12:04:04.346Z,101834.73
2018-09-05T12:06:32.739Z,101833.98
2018-09-05T12:09:01.110Z,101835.87
2018-09-05T12:11:29.510Z,101827.45
2018-09-05T12:13:57.894Z,101830.02
2018-09-05T12:16:26.283Z,101828.19
2018-09-05T12:18:54.650Z,101823.56
2018-09-05T12:21:23.066Z,101824.56
2018-09-05T12:23:51.425Z,101824.58
2018-09-05T12:26:19.831Z,101819.27
2018-09-05T12:28:48.207Z,101822.41
2018-09-05T12:31:16.610Z,101818.06
2018-09-05T12:33:44.976Z,101821.30
2018-09-05T12:36:13.375Z,101820.44
2018-09-05T12:38:41.755Z,101821.42
2018-09-05T12:41:10.142Z,101817.38
2018-09-05T12:43:38.515Z,101818.66
2018-09-05T12:46:06.903Z,101815.12
2018-09-05T12:48:35.330Z,101809.78
2018-09-05T12:51:03.675Z,101804.41
2018-09-05T12:53:32.070Z,101803.33
2018-09-05T12:56:00.444Z,101803.52
2018-09-05T12:58:28.855Z,101798.76
2018-09-05T13:00:57.236Z,101793.45
2018-09-05T13:03:25.633Z,101797.25
2018-09-05T13:05:53.998Z,101790.97
2018-09-05T13:08:22.403Z,101799.16
2018-09-05T13:10:50.787Z,101797.61
2018-09-05T13:13:19.187Z,101795.77
2018-09-05T13:15:47.549Z,101793.52
2018-09-05T13:18:15.942Z,101793.90
2018-09-05T13:20:44.340Z,101790.70
2018-09-05T13:23:12.739Z,101791.88
2018-09-05T13:25:41.117Z,101792.20
2018-09-05T13:28:09.649Z,101795.58
2018-09-05T13:30:38.015Z,101795.08
2018-09-05T13:33:06.481Z,101788.85
2018-09-05T13:35:34.807Z,101791.48
2018-09-05T13:38:03.208Z,101789.22
2018-09-05T13:40:31.578Z,101789.25
2018-09-05T13:42:59.987Z,101787.98
2018-09-05T13:45:28.532Z,101784.90
2018-09-05T13:47:56.936Z,101781.94
2018-09-05T13:50:25.312Z,101780.23
2018-09-05T13:52:53.740Z,101773.63
2018-09-05T13:55:22.148Z,101777.00
2018-09-05T13:57:50.539Z,101773.70
2018-09-05T14:00:18.919Z,101776.09
2018-09-05T14:02:47.943Z,101781.09
2018-09-05T14:05:16.995Z,101774.23
2018-09-05T14:07:45.436Z,101769.20
2018-09-05T14:10:14.878Z,101774.38
2018-09-05T14:12:43.277Z,101764.49
2018-09-05T14:15:11.654Z,101772.83
2018-09-05T14:17:40.051Z,101771.09
2018-09-05T14:20:08.484Z,101768.84
2018-09-05T14:22:36.902Z,101766.16
2018-09-05T14:25:05.310Z,101771.37
2018-09-05T14:27:33.924Z,101764.36
2018-09-05T14:30:02.267Z,101767.24
2018-09-05T14:32:30.677Z,101758.20
2018-09-05T14:34:59.059Z,101760.31
2018-09-05T14:37:27.452Z,101763.77
2018-09-05T14:39:55.858Z,101760.91
2018-09-05T14:42:24.251Z,101761.39
2018-09-05T14:44:52.639Z,101756.52
2018-09-05T14:47:21.055Z,101749.83
2018-09-05T14:49:49.479Z,101753.22
2018-09-05T14:52:17.856Z,101760.22
2018-09-05T14:54:46.255Z,101761.43
2018-09-05T14:57:14.631Z,101762.23
2018-09-05T14:59:43.039Z,101751.52
2018-09-05T15:02:11.426Z,101754.64
2018-09-05T15:04:39.964Z,101751.98
2018-09-05T15:07:08.356Z,101762.23
2018-09-05T15:09:36.747Z,101757.05
2018-09-05T15:12:05.123Z,101755.08
2018-09-05T15:14:33.525Z,101757.51
2018-09-05T15:17:02.013Z,101765.30
2018-09-05T15:19:30.435Z,101758.09
2018-09-05T15:21:58.815Z,101760.14
2018-09-05T15:24:27.207Z,101752.06
2018-09-05T15:26:55.662Z,101753.67
2018-09-05T15:29:24.059Z,101746.83
2018-09-05T15:31:52.447Z,101747.83
2018-09-05T15:34:20.845Z,101747.02
2018-09-05T15:36:49.219Z,101747.08
2018-09-05T15:39:17.640Z,101743.56
2018-09-05T15:41:46.049Z,101743.98
2018-09-05T15:44:14.467Z,101745.75
2018-09-05T15:46:42.842Z,101743.98
2018-09-05T15:49:11.269Z,101740.53
2018-09-05T15:51:39.657Z,101744.94
2018-09-05T15:54:08.071Z,101736.18
2018-09-05T15:56:36.461Z,101741.95
2018-09-05T15:59:04.867Z,101742.89
2018-09-05T16:01:33.254Z,101746.11
2018-09-05T16:04:01.658Z,101744.43
2018-09-05T16:06:30.036Z,101745.05
2018-09-05T16:08:58.426Z,101742.47
2018-09-05T16:11:26.798Z,101739.00
2018-09-05T16:13:55.207Z,101752.27
2018-09-05T16:16:24.163Z,101738.72
2018-09-05T16:18:52.564Z,101739.73
2018-09-05T16:21:20.955Z,101739.45
2018-09-05T16:23:49.362Z,101740.03
2018-09-05T16:26:17.764Z,101743.30
2018-09-05T16:28:46.215Z,101741.26
2018-09-05T16:31:14.599Z,101741.34
2018-09-05T16:33:43.007Z,101742.27
2018-09-05T16:36:11.432Z,101746.33
2018-09-05T16:38:39.808Z,101738.48
2018-09-05T16:41:08.190Z,101738.16
2018-09-05T16:43:36.573Z,101746.15
2018-09-05T16:46:04.960Z,101743.84
2018-09-05T16:48:33.340Z,101745.00
2018-09-05T16:51:01.745Z,101747.51
2018-09-05T16:53:30.144Z,101752.17
2018-09-05T16:55:58.538Z,101748.52
2018-09-05T16:58:26.907Z,101736.57
2018-09-05T17:00:55.306Z,101736.49
2018-09-05T17:03:23.670Z,101739.63
2018-09-05T17:05:52.071Z,101742.80
2018-09-05T17:08:20.446Z,101737.14
2018-09-05T17:10:48.833Z,101747.41
2018-09-05T17:13:17.207Z,101748.42
2018-09-05T17:15:45.619Z,101745.09
2018-09-05T17:18:13.999Z,101756.83
2018-09-05T17:20:42.419Z,101755.83
2018-09-05T17:23:10.795Z,101755.25
2018-09-05T17:25:39.191Z,101754.22
2018-09-05T17:28:07.587Z,101755.76
2018-09-05T17:30:35.988Z,101754.19
2018-09-05T17:33:04.367Z,101757.02
2018-09-05T17:35:32.786Z,101759.83
2018-09-05T17:38:01.177Z,101759.95
2018-09-05T17:40:29.575Z,101759.63
2018-09-05T17:42:57.956Z,101768.10
2018-09-05T17:45:26.447Z,101757.67
2018-09-05T17:47:54.824Z,101759.52
2018-09-05T17:50:23.223Z,101764.44
2018-09-05T17:52:51.663Z,101772.87
2018-09-05T17:55:20.075Z,101769.05
2018-09-05T17:57:48.449Z,101763.01
2018-09-05T18:00:16.842Z,101767.06
2018-09-05T18:02:45.213Z,101764.94
2018-09-05T18:05:13.652Z,101769.42
2018-09-05T18:07:42.021Z,101772.15
2018-09-05T18:10:10.419Z,101765.64
2018-09-05T18:12:38.806Z,101770.96
2018-09-05T18:15:07.255Z,101771.91
2018-09-05T18:17:35.646Z,101774.62
2018-09-05T18:20:04.075Z,101769.42
2018-09-05T18:22:32.451Z,101768.14
2018-09-05T18:25:00.854Z,101763.81
2018-09-05T18:27:29.231Z,101768.70
2018-09-05T18:29:57.639Z,101771.36
2018-09-05T18:32:26.244Z,101767.89
2018-09-05T18:34:54.643Z,101764.42
2018-09-05T18:37:23.024Z,101764.03
2018-09-05T18:39:51.428Z,101766.73
2018-09-05T18:42:19.842Z,101767.62
2018-09-05T18:44:48.246Z,101769.45
2018-09-05T18:47:16.724Z,101772.52
2018-09-05T18:49:45.093Z,101768.17
2018-09-05T18:52:13.494Z,101769.95
2018-09-05T18:54:41.866Z,101777.42
2018-09-05T18:57:10.259Z,101778.78
2018-09-05T18:59:38.626Z,101775.30
2018-09-05T19:02:07.357Z,101775.31
2018-09-05T19:04:36.324Z,101778.41
2018-09-05T19:07:05.090Z,101778.87
2018-09-05T19:09:33.468Z,101782.42
2018-09-05T19:12:01.871Z,101781.98
2018-09-05T19:14:30.259Z,101784.19
2018-09-05T19:16:58.709Z,101782.46
2018-09-05T19:19:27.167Z,101779.41
2018-09-05T19:21:55.581Z,101779.41
2018-09-05T19:24:23.959Z,101771.53
2018-09-05T19:26:52.349Z,101778.16
2018-09-05T19:29:20.727Z,101774.20
2018-09-05T19:31:49.129Z,101770.27
2018-09-05T19:34:17.513Z,101772.02
2018-09-05T19:36:45.911Z,101771.16
2018-09-05T19:39:14.286Z,101774.20
2018-09-05T19:41:42.684Z,101769.41
2018-09-05T19:44:11.062Z,101772.50
2018-09-05T19:46:39.459Z,101773.38
2018-09-05T19:49:07.893Z,101771.20
2018-09-05T19:51:36.443Z,101776.88
2018-09-05T19:54:04.814Z,101773.80
2018-09-05T19:56:33.216Z,101777.77
2018-09-05T19:59:01.599Z,101771.20
2018-09-05T20:01:30.168Z,101769.90
2018-09-05T20:03:58.547Z,101772.53
2018-09-05T20:06:26.952Z,101766.39
2018-09-05T20:08:55.482Z,101768.58
2018-09-05T20:11:23.897Z,101758.97
2018-09-05T20:13:52.312Z,101767.72
2018-09-05T20:16:20.711Z,101760.28
2018-09-05T20:18:49.112Z,101755.46
2018-09-05T20:21:17.544Z,101761.59
2018-09-05T20:23:45.923Z,101753.27
2018-09-05T20:26:14.322Z,101758.97
2018-09-05T20:28:42.700Z,101757.64
2018-09-05T20:31:11.131Z,101762.00
2018-09-05T20:33:39.506Z,101762.45
2018-09-05T20:36:07.903Z,101766.81
2018-09-05T20:38:36.285Z,101760.27
2018-09-05T20:41:04.683Z,101766.36
2018-09-05T20:43:33.134Z,101765.47
2018-09-05T20:46:01.480Z,101764.59
2018-09-05T20:48:29.885Z,101765.91
2018-09-05T20:50:58.557Z,101768.52
2018-09-05T20:53:26.962Z,101766.76
2018-09-05T20:55:55.347Z,101765.87
2018-09-05T20:58:23.745Z,101764.98
2018-09-05T21:00:52.127Z,101771.55
2018-09-05T21:03:20.530Z,101767.17
2018-09-05T21:05:48.923Z,101763.68
2018-09-05T21:08:17.334Z,101758.86
2018-09-05T21:10:45.720Z,101759.74
2018-09-05T21:13:14.118Z,101755.37
2018-09-05T21:15:42.499Z,101753.59
2018-09-05T21:18:10.981Z,101757.97
2018-09-05T21:20:39.342Z,101752.28
2018-09-05T21:23:07.751Z,101754.02
2018-09-05T21:25:36.135Z,101749.66
2018-09-05T21:28:04.643Z,101754.00
2018-09-05T21:30:33.023Z,101753.58
2018-09-05T21:33:01.433Z,101750.53
2018-09-05T21:35:29.814Z,101753.58
2018-09-05T21:37:58.209Z,101730.78
2018-09-05T21:40:26.591Z,101755.30
2018-09-05T21:42:54.994Z,101753.98
2018-09-05T21:45:23.374Z,101753.95
2018-09-05T21:47:51.783Z,101752.20
2018-09-05T21:50:20.163Z,101753.06
2018-09-05T21:52:48.630Z,101751.30
2018-09-05T21:55:16.995Z,101744.26
2018-09-05T21:57:45.415Z,101746.42
2018-09-05T22:00:13.811Z,101745.09
2018-09-05T22:02:42.206Z,101747.68
2018-09-05T22:05:10.587Z,101747.25
2018-09-05T22:07:38.989Z,101742.42
2018-09-05T22:10:07.371Z,101745.41
2018-09-05T22:12:36.045Z,101744.52
2018-09-05T22:15:04.952Z,101744.47
2018-09-05T22:17:33.345Z,101747.08
2018-09-05T22:20:01.734Z,101740.95
2018-09-05T22:22:30.142Z,101744.87
2018-09-05T22:24:58.509Z,101739.62
2018-09-05T22:27:26.897Z,101738.30
2018-09-05T22:29:55.274Z,101742.64
2018-09-05T22:32:23.681Z,101741.73
2018-09-05T22:34:52.095Z,101739.09
2018-09-05T22:37:20.500Z,101736.88
2018-09-05T22:39:48.885Z,101734.25
2018-09-05T22:42:17.254Z,101736.83
2018-09-05T22:44:57.330Z,101733.77
2018-09-05T22:47:36.995Z,101735.44
2018-09-05T22:50:23.772Z,101739.36
2018-09-05T22:53:08.593Z,101737.57
2018-09-05T22:55:50.180Z,101737.97
2018-09-05T22:59:31.867Z,101734.87
2018-09-05T23:04:16.422Z,101732.22
2018-09-05T23:06:57.988Z,101726.45
2018-09-05T23:09:37.611Z,101722.51
2018-09-05T23:13:17.087Z,101723.37
2018-09-05T23:15:56.972Z,101722.88
2018-09-05T23:18:36.751Z,101721.52
2018-09-05T23:21:16.647Z,101724.55
2018-09-05T23:23:57.147Z,101714.06
2018-09-05T23:26:25.562Z,101717.08
2018-09-05T23:28:54.074Z,101715.77
2018-09-05T23:31:22.787Z,101714.47
2018-09-05T23:33:51.175Z,101713.16
2018-09-05T23:36:19.944Z,101711.84
2018-09-05T23:38:48.343Z,101714.06
2018-09-05T23:41:16.783Z,101715.80
2018-09-05T23:43:45.167Z,101707.55
2018-09-05T23:46:13.871Z,101708.01
2018-09-05T23:48:42.255Z,101699.77
2018-09-05T23:51:10.675Z,101700.23
2018-09-05T23:53:39.067Z,101698.07
2018-09-05T23:56:07.480Z,101698.97
2018-09-05T23:58:35.870Z,101696.78
